Time;durP1;ratioP1;P1;durP2;ratioP2;P2;SDS_P1;SDS_P2;PMS_P1;PMS_P2;Temp;Humidity;BMP_temperature;BMP_pressure;BME280_temperature;BME280_humidity;BME280_pressure;Samples;Min_cycle;Max_cycle;Signal;HPM_P1;HPM_P2
2023/08/20 00:01:56;;;;;;;23.20;16.60;;;;;;;26.16;58.07;100516.60;108002;1254;60464;-66
2023/08/20 00:04:25;;;;;;;21.50;16.40;;;;;;;26.06;58.28;100517.15;108034;1254;60545;-68
2023/08/20 00:06:53;;;;;;;24.50;16.90;;;;;;;26.05;58.30;100516.92;108065;1254;73814;-67
2023/08/20 00:09:20;;;;;;;18.60;15.20;;;;;;;26.32;57.73;100521.00;108058;1253;70011;-68
2023/08/20 00:11:48;;;;;;;22.70;16.30;;;;;;;26.34;57.59;100519.68;108072;1255;71271;-68
2023/08/20 00:14:16;;;;;;;15.80;13.80;;;;;;;26.43;57.25;100519.71;108068;1254;60444;-69
2023/08/20 00:16:44;;;;;;;23.60;16.20;;;;;;;26.41;57.22;100523.65;108049;1254;60328;-67
2023/08/20 00:19:11;;;;;;;19.40;15.10;;;;;;;26.29;57.62;100524.88;108043;1252;75913;-67
2023/08/20 00:21:41;;;;;;;22.60;16.20;;;;;;;26.32;57.65;100519.55;108082;1254;70064;-66
2023/08/20 00:24:09;;;;;;;24.50;16.80;;;;;;;26.32;57.67;100516.45;108060;1254;73030;-67
2023/08/20 00:26:36;;;;;;;20.90;17.10;;;;;;;26.27;57.95;100518.42;107976;1254;61740;-67
2023/08/20 00:29:04;;;;;;;22.90;15.90;;;;;;;26.00;58.52;100517.95;108082;1253;60501;-67
2023/08/20 00:31:31;;;;;;;21.00;15.30;;;;;;;25.91;58.99;100515.14;107993;1256;74242;-67
2023/08/20 00:33:59;;;;;;;19.70;16.10;;;;;;;25.87;59.06;100512.74;108135;1253;70366;-67
2023/08/20 00:36:34;;;;;;;22.20;16.20;;;;;;;25.68;59.65;100508.52;108094;1254;71377;-67
2023/08/20 00:39:01;;;;;;;19.60;15.60;;;;;;;25.85;59.12;100509.27;108005;1254;62153;-67
2023/08/20 00:41:29;;;;;;;18.00;15.60;;;;;;;26.01;58.67;100510.46;107985;1253;60315;-67
2023/08/20 00:43:56;;;;;;;17.90;15.60;;;;;;;25.86;59.13;100509.55;107969;1254;76094;-68
2023/08/20 00:46:23;;;;;;;18.50;15.70;;;;;;;26.00;58.69;100511.63;107993;1254;69049;-67
2023/08/20 00:48:51;;;;;;;19.40;16.60;;;;;;;26.04;58.55;100510.15;108078;1253;72675;-67
2023/08/20 00:51:18;;;;;;;20.90;16.30;;;;;;;26.12;58.31;100510.66;108049;1254;60727;-67
2023/08/20 00:53:46;;;;;;;21.90;17.00;;;;;;;26.12;58.37;100511.94;108118;1253;60376;-68
2023/08/20 00:56:14;;;;;;;29.90;18.00;;;;;;;26.09;58.72;100511.31;108151;1257;72575;-67
2023/08/20 00:58:42;;;;;;;20.60;17.10;;;;;;;26.14;58.53;100510.98;108186;1254;69259;-68
2023/08/20 01:01:09;;;;;;;23.00;17.00;;;;;;;26.07;58.45;100503.52;108306;1257;72642;-67
2023/08/20 01:03:37;;;;;;;19.00;16.40;;;;;;;25.99;58.78;100503.77;108154;1254;61637;-67
2023/08/20 01:06:49;;;;;;;19.60;15.60;;;;;;;26.07;58.55;100501.08;108164;1254;60503;-66
2023/08/20 01:09:32;;;;;;;19.60;15.90;;;;;;;26.27;57.90;100500.27;107795;1254;74332;-67
2023/08/20 01:12:00;;;;;;;28.10;18.60;;;;;;;26.25;57.85;100496.81;108162;1254;70171;-68
2023/08/20 01:14:29;;;;;;;20.40;16.80;;;;;;;25.99;58.66;100493.54;108249;1253;72793;-67
2023/08/20 01:16:56;;;;;;;21.80;17.40;;;;;;;25.92;58.89;100489.66;108200;1258;60434;-67
2023/08/20 01:19:25;;;;;;;18.20;16.20;;;;;;;25.76;59.45;100491.05;108160;1252;60450;-66
2023/08/20 01:22:31;;;;;;;20.20;16.10;;;;;;;25.81;59.19;100488.59;108138;1254;73918;-67
2023/08/20 01:25:18;;;;;;;22.30;17.70;;;;;;;25.84;59.14;100489.22;107951;1254;68707;-67
2023/08/20 01:28:00;;;;;;;20.70;16.00;;;;;;;25.78;59.44;100490.09;108175;1254;73910;-67
2023/08/20 01:30:27;;;;;;;18.10;15.30;;;;;;;25.75;59.32;100488.05;107901;1259;60725;-68
2023/08/20 01:32:55;;;;;;;22.90;17.50;;;;;;;25.56;59.89;100483.75;108006;1253;60460;-68
2023/08/20 01:35:24;;;;;;;16.10;14.30;;;;;;;25.38;60.46;100488.33;107922;1254;73888;-68
2023/08/20 01:38:02;;;;;;;18.40;15.70;;;;;;;25.28;60.81;100489.81;108066;1254;70291;-67
2023/08/20 01:40:31;;;;;;;22.60;18.00;;;;;;;25.32;60.91;100488.86;108024;1254;72435;-69
2023/08/20 01:42:59;;;;;;;21.60;17.20;;;;;;;25.60;60.26;100490.41;108007;1257;60525;-68
2023/08/20 01:45:26;;;;;;;21.30;17.20;;;;;;;25.60;60.11;100486.95;108124;1259;60597;-67
2023/08/20 01:47:54;;;;;;;22.20;17.00;;;;;;;25.75;59.60;100484.70;108067;1252;73631;-68
2023/08/20 01:50:21;;;;;;;19.30;15.90;;;;;;;25.70;59.82;100485.30;107958;1257;70183;-66
2023/08/20 01:52:48;;;;;;;26.20;17.10;;;;;;;25.50;60.34;100485.08;107997;1257;70710;-68
2023/08/20 01:55:16;;;;;;;19.90;16.40;;;;;;;25.48;60.46;100481.83;108033;1254;61595;-67
2023/08/20 01:57:43;;;;;;;20.10;17.60;;;;;;;25.51;60.41;100481.91;108009;1256;59074;-68
2023/08/20 02:00:12;;;;;;;19.80;16.60;;;;;;;25.44;60.61;100481.37;108030;1254;73930;-68
2023/08/20 02:02:42;;;;;;;22.70;17.40;;;;;;;25.50;60.52;100483.66;108125;1254;70128;-68
2023/08/20 02:05:10;;;;;;;19.40;16.60;;;;;;;25.44;60.63;100489.05;108201;1254;72727;-67
2023/08/20 02:07:38;;;;;;;19.50;16.50;;;;;;;25.36;60.86;100488.88;108143;1254;60781;-68
2023/08/20 02:10:06;;;;;;;18.00;15.90;;;;;;;25.24;61.32;100489.14;108006;1253;60252;-67
2023/08/20 02:12:33;;;;;;;20.30;17.30;;;;;;;25.28;61.23;100489.11;108185;1253;75936;-66
2023/08/20 02:15:00;;;;;;;20.80;17.00;;;;;;;25.24;61.29;100488.59;107950;1260;73161;-67
2023/08/20 02:17:28;;;;;;;21.90;18.40;;;;;;;25.19;61.43;100490.27;108144;1257;72912;-67
2023/08/20 02:19:55;;;;;;;27.60;18.30;;;;;;;25.20;61.45;100489.10;108048;1253;61511;-66
2023/08/20 02:22:23;;;;;;;18.70;16.70;;;;;;;25.15;61.58;100490.80;108106;1254;60020;-67
2023/08/20 02:24:50;;;;;;;20.10;17.10;;;;;;;25.12;61.60;100489.59;108059;1259;73916;-67
2023/08/20 02:27:18;;;;;;;18.60;16.50;;;;;;;25.23;61.40;100494.89;108058;1253;69677;-67
2023/08/20 02:29:45;;;;;;;25.70;17.70;;;;;;;25.25;61.01;100491.52;107991;1253;72921;-68
2023/08/20 02:32:15;;;;;;;22.10;17.90;;;;;;;25.28;61.10;100495.68;108112;1254;61659;-68
2023/08/20 02:34:43;;;;;;;22.90;17.90;;;;;;;25.32;61.03;100493.35;108206;1253;60461;-67
2023/08/20 02:37:11;;;;;;;21.00;18.70;;;;;;;25.33;61.01;100495.86;108131;1254;74004;-66
2023/08/20 02:39:38;;;;;;;23.10;18.00;;;;;;;25.24;61.33;100496.81;108218;1254;68762;-67
2023/08/20 02:42:07;;;;;;;18.20;16.40;;;;;;;25.16;61.53;100498.10;108058;1254;72643;-69
2023/08/20 02:44:34;;;;;;;20.20;18.00;;;;;;;25.16;61.49;100495.23;108160;1251;60651;-66
2023/08/20 02:47:02;;;;;;;22.90;18.60;;;;;;;25.15;61.33;100495.84;108137;1254;60408;-67
2023/08/20 02:49:29;;;;;;;20.50;17.90;;;;;;;25.12;61.45;100492.89;108225;1253;72521;-67
2023/08/20 02:51:57;;;;;;;25.30;18.00;;;;;;;25.13;61.63;100496.77;108249;1253;69181;-68
2023/08/20 02:54:25;;;;;;;26.30;18.10;;;;;;;25.07;61.72;100494.10;108135;1254;72658;-67
2023/08/20 02:56:53;;;;;;;22.00;19.50;;;;;;;25.03;61.90;100494.23;108134;1254;60382;-67
2023/08/20 02:59:21;;;;;;;24.30;18.70;;;;;;;24.96;62.26;100493.48;108189;1254;60373;-65
2023/08/20 03:01:48;;;;;;;24.40;18.40;;;;;;;24.98;62.31;100491.69;108218;1254;73662;-68
2023/08/20 03:04:16;;;;;;;21.90;18.80;;;;;;;25.06;62.05;100492.37;108204;1254;72435;-67
2023/08/20 03:06:43;;;;;;;22.20;18.60;;;;;;;25.01;62.16;100486.72;108187;1257;72708;-68
2023/08/20 03:09:11;;;;;;;22.70;20.10;;;;;;;24.96;62.46;100491.71;108255;1254;60446;-65
2023/08/20 03:11:38;;;;;;;24.50;19.50;;;;;;;24.98;62.48;100494.21;108136;1254;60537;-67
2023/08/20 03:14:06;;;;;;;25.10;19.80;;;;;;;24.91;62.75;100492.79;108125;1253;73933;-66
2023/08/20 03:16:34;;;;;;;23.90;19.60;;;;;;;24.95;62.66;100493.02;108204;1253;70272;-69
2023/08/20 03:19:02;;;;;;;21.60;17.90;;;;;;;24.96;62.76;100494.35;108200;1257;72171;-67
2023/08/20 03:21:30;;;;;;;25.90;19.50;;;;;;;25.05;63.00;100497.53;108257;1257;60482;-68
2023/08/20 03:26:28;;;;;;;25.30;18.30;;;;;;;23.89;68.56;100492.52;104962;1292;601054;-67
2023/08/20 03:28:56;;;;;;;22.70;18.00;;;;;;;25.02;64.81;100488.40;107291;1267;61655;-67
2023/08/20 03:31:24;;;;;;;21.80;17.40;;;;;;;25.39;63.61;100483.52;107303;1265;60023;-66
2023/08/20 03:33:52;;;;;;;20.00;16.70;;;;;;;25.54;63.27;100488.81;107307;1268;72640;-65
2023/08/20 03:36:19;;;;;;;21.10;16.60;;;;;;;25.83;62.59;100488.75;107284;1266;70820;-66
2023/08/20 03:38:46;;;;;;;19.40;15.50;;;;;;;26.12;61.60;100489.73;107264;1266;71915;-66
2023/08/20 03:41:14;;;;;;;19.70;14.90;;;;;;;26.42;60.82;100489.19;107709;1255;282712;-67
2023/08/20 03:43:41;;;;;;;20.00;15.00;;;;;;;26.74;59.92;100492.02;107900;1256;59935;-68
2023/08/20 03:46:09;;;;;;;15.80;14.20;;;;;;;27.12;58.64;100488.77;107899;1259;72173;-67
2023/08/20 03:48:37;;;;;;;18.30;13.60;;;;;;;27.48;57.75;100487.94;107675;1260;70646;-68
2023/08/20 03:51:04;;;;;;;17.90;14.20;;;;;;;27.68;56.81;100482.66;107882;1254;71380;-68
2023/08/20 03:53:31;;;;;;;22.10;13.60;;;;;;;28.00;55.87;100480.98;107830;1260;61726;-69
2023/08/20 03:55:59;;;;;;;17.00;13.40;;;;;;;28.26;54.85;100477.41;108018;1259;59952;-69
2023/08/20 03:58:27;;;;;;;16.70;12.90;;;;;;;28.36;54.53;100478.53;107838;1260;73053;-68
2023/08/20 04:00:54;;;;;;;17.30;13.00;;;;;;;28.55;54.09;100479.55;108038;1253;70450;-68
2023/08/20 04:03:23;;;;;;;17.50;11.90;;;;;;;28.90;53.21;100477.95;107986;1254;72842;-67
2023/08/20 04:05:51;;;;;;;15.00;12.50;;;;;;;29.30;52.33;100475.38;108137;1257;60439;-68
2023/08/20 04:08:18;;;;;;;15.50;11.80;;;;;;;29.77;50.84;100473.50;108113;1257;59483;-69
2023/08/20 04:10:45;;;;;;;12.40;11.10;;;;;;;30.10;50.06;100469.48;108130;1253;72040;-69
2023/08/20 04:13:13;;;;;;;20.10;12.10;;;;;;;30.35;49.51;100470.73;107990;1254;70113;-68
2023/08/20 04:15:41;;;;;;;15.20;11.00;;;;;;;30.80;48.41;100472.20;107996;1254;71266;-67
2023/08/20 04:18:09;;;;;;;14.70;11.10;;;;;;;31.07;47.85;100467.84;108093;1259;60375;-69
2023/08/20 04:20:37;;;;;;;13.90;11.10;;;;;;;31.27;47.08;100468.02;108220;1255;60244;-67
2023/08/20 04:23:04;;;;;;;15.40;10.20;;;;;;;31.82;45.92;100464.23;108184;1257;72724;-68
2023/08/20 04:25:32;;;;;;;16.20;10.90;;;;;;;32.21;45.15;100459.57;107940;1255;70498;-67
2023/08/20 04:27:59;;;;;;;13.00;10.50;;;;;;;32.61;44.39;100456.95;107930;1259;71397;-67
2023/08/20 04:30:27;;;;;;;13.90;10.40;;;;;;;33.03;43.47;100451.98;107896;1260;61712;-69
2023/08/20 04:32:54;;;;;;;14.30;11.00;;;;;;;33.36;42.75;100448.92;107680;1254;60056;-68
2023/08/20 04:35:22;;;;;;;16.30;11.10;;;;;;;33.37;42.47;100446.25;107960;1254;71776;-68
2023/08/20 04:37:50;;;;;;;16.00;10.20;;;;;;;33.49;42.39;100444.27;107908;1259;70531;-68
2023/08/20 04:40:18;;;;;;;14.40;10.30;;;;;;;33.67;41.69;100440.85;107876;1254;63743;-68
2023/08/20 04:42:45;;;;;;;16.30;10.00;;;;;;;33.92;40.98;100439.79;107959;1255;59507;-67
2023/08/20 04:45:14;;;;;;;17.60;10.20;;;;;;;34.31;40.81;100441.88;107861;1254;59641;-68
2023/08/20 04:47:41;;;;;;;15.20;9.90;;;;;;;34.76;40.12;100444.45;107929;1254;62837;-70
2023/08/20 04:50:09;;;;;;;13.60;10.00;;;;;;;34.95;39.92;100445.16;107991;1254;61562;-70
2023/08/20 04:52:36;;;;;;;13.20;10.30;;;;;;;35.30;39.45;100444.98;107866;1254;63780;-68
2023/08/20 04:55:06;;;;;;;17.20;10.40;;;;;;;35.67;38.65;100439.15;107836;1253;59517;-70
2023/08/20 04:57:34;;;;;;;24.50;11.00;;;;;;;36.10;37.71;100440.51;108015;1254;58985;-70
2023/08/20 05:00:03;;;;;;;16.70;10.10;;;;;;;36.29;37.10;100438.70;107873;1254;64208;-70
2023/08/20 05:02:42;;;;;;;15.50;9.40;;;;;;;36.70;36.38;100442.36;108004;1254;61597;-68
2023/08/20 05:05:12;;;;;;;15.30;10.10;;;;;;;37.12;35.86;100446.15;107839;1253;63810;-69
2023/08/20 05:07:41;;;;;;;17.80;9.30;;;;;;;37.41;35.42;100445.30;107942;1259;59614;-68
2023/08/20 05:10:08;;;;;;;10.80;8.60;;;;;;;37.63;35.05;100443.20;108049;1254;59162;-67
2023/08/20 05:12:36;;;;;;;12.60;8.80;;;;;;;38.00;34.50;100438.20;107959;1254;62922;-69
2023/08/20 05:15:05;;;;;;;13.60;8.20;;;;;;;38.42;33.81;100442.34;107948;1255;69165;-69
2023/08/20 05:17:32;;;;;;;11.40;7.80;;;;;;;38.81;33.03;100442.09;107926;1254;64246;-69
2023/08/20 05:20:00;;;;;;;16.10;6.90;;;;;;;39.18;32.16;100445.62;107938;1258;59595;-69
2023/08/20 05:22:29;;;;;;;14.10;7.00;;;;;;;39.55;31.12;100444.36;107962;1255;59733;-68
2023/08/20 05:24:56;;;;;;;11.00;7.60;;;;;;;39.58;30.75;100439.54;107909;1254;66646;-68
2023/08/20 05:27:23;;;;;;;10.70;6.50;;;;;;;39.78;30.64;100441.77;108020;1260;60237;-69
2023/08/20 05:29:51;;;;;;;13.30;7.10;;;;;;;39.87;30.21;100437.27;107994;1254;63903;-69
2023/08/20 05:32:19;;;;;;;9.40;7.00;;;;;;;39.78;30.42;100440.36;107974;1254;59730;-70
2023/08/20 05:34:48;;;;;;;14.60;6.80;;;;;;;39.94;30.53;100436.41;107896;1255;60161;-69
2023/08/20 05:37:15;;;;;;;12.00;7.40;;;;;;;39.95;30.33;100431.09;107975;1254;64132;-68
2023/08/20 05:39:43;;;;;;;12.40;7.80;;;;;;;39.98;29.99;100433.52;107969;1254;60279;-69
2023/08/20 05:42:11;;;;;;;13.50;7.00;;;;;;;40.20;29.72;100431.33;107905;1254;63723;-68
2023/08/20 05:44:40;;;;;;;12.80;7.10;;;;;;;40.47;29.26;100429.10;107944;1254;59559;-69
2023/08/20 05:47:10;;;;;;;12.00;6.50;;;;;;;40.60;28.98;100429.47;107971;1254;59511;-69
2023/08/20 05:49:37;;;;;;;9.20;6.20;;;;;;;40.84;28.38;100429.23;108042;1254;63037;-69
2023/08/20 05:52:07;;;;;;;10.70;5.40;;;;;;;41.12;27.77;100427.79;107971;1254;63538;-68
2023/08/20 05:54:34;;;;;;;10.40;5.60;;;;;;;41.09;27.50;100425.55;107900;1254;62478;-68
2023/08/20 05:57:02;;;;;;;9.90;5.60;;;;;;;41.09;27.38;100421.17;107939;1254;59490;-68
2023/08/20 05:59:30;;;;;;;10.00;5.70;;;;;;;41.25;27.12;100418.62;107861;1254;59496;-69
2023/08/20 06:01:57;;;;;;;10.30;5.60;;;;;;;41.38;27.39;100416.82;108028;1254;64427;-66
2023/08/20 06:04:25;;;;;;;10.40;5.80;;;;;;;41.68;27.04;100414.83;107935;1254;61906;-69
2023/08/20 06:06:52;;;;;;;13.40;5.80;;;;;;;42.02;26.86;100418.26;107923;1254;63738;-68
2023/08/20 06:09:20;;;;;;;9.90;5.70;;;;;;;42.39;26.60;100418.20;107994;1254;59598;-69
2023/08/20 06:11:48;;;;;;;13.20;6.10;;;;;;;42.74;26.13;100417.39;107944;1254;59376;-70
2023/08/20 06:14:16;;;;;;;8.80;5.60;;;;;;;43.01;25.78;100422.67;107849;1257;64138;-69
2023/08/20 06:16:44;;;;;;;11.30;5.80;;;;;;;43.30;25.36;100424.02;107906;1254;61503;-69
2023/08/20 06:19:11;;;;;;;11.70;5.90;;;;;;;43.53;24.66;100426.34;107929;1259;62515;-69
2023/08/20 06:21:38;;;;;;;14.40;5.80;;;;;;;43.83;24.21;100422.56;107966;1254;59491;-70
2023/08/20 06:24:06;;;;;;;10.00;5.50;;;;;;;44.19;23.92;100417.83;107911;1258;59711;-70
2023/08/20 06:26:33;;;;;;;9.70;5.70;;;;;;;44.28;23.49;100416.85;107948;1254;64105;-70
2023/08/20 06:29:01;;;;;;;11.60;5.70;;;;;;;43.93;23.72;100419.38;108009;1254;61432;-69
2023/08/20 06:31:29;;;;;;;13.30;6.00;;;;;;;43.70;23.72;100421.39;107986;1258;63763;-70
2023/08/20 06:33:56;;;;;;;10.90;5.80;;;;;;;43.51;24.05;100422.27;107977;1254;59585;-69
2023/08/20 06:36:24;;;;;;;10.30;5.70;;;;;;;43.09;24.76;100420.08;107963;1259;60362;-68
2023/08/20 06:38:51;;;;;;;9.10;5.40;;;;;;;43.17;24.72;100421.33;108018;1253;64129;-69
2023/08/20 06:41:18;;;;;;;12.90;5.50;;;;;;;43.57;24.30;100418.88;107963;1254;61391;-68
2023/08/20 06:43:46;;;;;;;11.20;5.40;;;;;;;43.92;23.58;100419.84;107923;1254;62723;-70
2023/08/20 06:46:13;;;;;;;8.20;4.90;;;;;;;44.01;23.09;100414.88;107945;1257;59717;-69
2023/08/20 06:48:41;;;;;;;8.90;4.60;;;;;;;44.14;23.24;100411.21;107970;1254;59591;-69
2023/08/20 06:51:11;;;;;;;10.70;4.70;;;;;;;44.47;22.80;100408.90;108064;1254;64319;-69
2023/08/20 06:53:40;;;;;;;7.30;4.60;;;;;;;44.75;22.50;100409.16;108015;1254;60804;-70
2023/08/20 06:56:08;;;;;;;8.00;4.60;;;;;;;44.89;22.23;100404.67;107968;1254;66303;-70
2023/08/20 06:58:37;;;;;;;12.50;5.30;;;;;;;44.90;22.16;100405.97;108035;1256;59545;-69
2023/08/20 07:01:08;;;;;;;8.30;5.00;;;;;;;44.82;22.35;100403.18;108050;1254;59508;-70
2023/08/20 07:03:43;;;;;;;6.30;4.60;;;;;;;44.68;22.31;100407.89;108007;1254;64138;-69
2023/08/20 07:06:10;;;;;;;8.40;4.40;;;;;;;44.81;21.93;100406.41;107999;1254;60089;-71
2023/08/20 07:08:41;;;;;;;10.80;5.00;;;;;;;44.94;21.77;100410.63;107903;1259;63753;-69
2023/08/20 07:11:08;;;;;;;8.40;5.30;;;;;;;45.00;21.69;100409.67;107919;1260;59164;-70
2023/08/20 07:13:36;;;;;;;9.70;4.80;;;;;;;44.87;21.66;100408.68;107976;1254;59801;-70
2023/08/20 07:16:03;;;;;;;8.30;5.00;;;;;;;44.61;22.02;100408.33;108046;1254;62830;-71
2023/08/20 07:18:31;;;;;;;8.10;4.40;;;;;;;44.51;22.14;100406.54;108088;1254;61358;-70
2023/08/20 07:20:59;;;;;;;9.20;4.80;;;;;;;44.57;21.90;100404.55;107968;1254;73348;-70
2023/08/20 07:23:26;;;;;;;10.90;4.80;;;;;;;44.72;21.95;100407.38;107989;1254;59602;-71
2023/08/20 07:26:04;;;;;;;11.60;4.80;;;;;;;44.95;21.87;100409.95;108033;1254;59625;-70
2023/08/20 07:31:17;;;;;;;10.00;4.70;;;;;;;45.62;20.96;100404.70;107961;1254;61311;-70
2023/08/20 07:33:48;;;;;;;7.10;4.40;;;;;;;45.67;21.06;100402.02;108018;1254;63735;-70
2023/08/20 07:36:15;;;;;;;7.00;4.40;;;;;;;45.73;20.91;100402.27;108121;1253;60316;-70
2023/08/20 07:38:42;;;;;;;10.20;4.70;;;;;;;45.93;20.68;100404.45;108042;1253;60427;-70
2023/08/20 07:41:11;;;;;;;10.90;4.20;;;;;;;45.99;20.30;100402.64;108053;1253;64893;-70
2023/08/20 07:43:38;;;;;;;7.50;4.70;;;;;;;46.12;20.12;100401.05;108094;1254;60507;-70
2023/08/20 07:46:07;;;;;;;9.20;4.60;;;;;;;46.27;20.14;100399.28;108052;1254;63680;-70
2023/08/20 07:48:35;;;;;;;11.10;4.40;;;;;;;46.56;20.03;100401.05;108124;1254;60346;-70
2023/08/20 07:51:02;;;;;;;5.60;4.10;;;;;;;46.80;19.81;100395.34;108109;1254;60319;-70
2023/08/20 07:53:30;;;;;;;6.70;4.10;;;;;;;47.37;19.19;100400.11;108077;1253;65137;-70
2023/08/20 07:55:59;;;;;;;10.40;4.40;;;;;;;47.31;19.05;100400.95;108132;1257;61360;-69
2023/08/20 07:58:28;;;;;;;6.60;4.40;;;;;;;47.21;19.28;100396.42;108113;1259;64204;-69
2023/08/20 08:00:57;;;;;;;8.10;3.70;;;;;;;47.23;18.83;100394.79;108022;1254;60333;-69
2023/08/20 08:03:26;;;;;;;4.60;3.50;;;;;;;47.40;18.57;100395.27;108079;1254;60701;-69
2023/08/20 08:05:54;;;;;;;11.80;4.00;;;;;;;47.55;18.40;100393.10;108049;1254;64928;-70
2023/08/20 08:08:22;;;;;;;12.60;3.90;;;;;;;47.83;18.11;100388.35;108039;1254;61433;-69
2023/08/20 08:10:49;;;;;;;7.70;4.00;;;;;;;47.85;17.95;100387.16;108049;1254;63112;-70
2023/08/20 08:13:22;;;;;;;5.90;3.60;;;;;;;47.81;17.94;100386.48;108086;1253;59152;-70
2023/08/20 08:15:50;;;;;;;7.30;3.90;;;;;;;47.67;17.95;100380.96;108118;1254;60307;-69
2023/08/20 08:18:19;;;;;;;15.10;4.20;;;;;;;47.84;17.41;100382.27;108052;1253;63798;-68
2023/08/20 08:20:46;;;;;;;4.90;3.10;;;;;;;48.03;16.79;100385.58;108123;1257;60496;-69
2023/08/20 08:23:14;;;;;;;9.30;3.40;;;;;;;47.60;16.46;100388.00;108047;1254;62774;-70
2023/08/20 08:25:41;;;;;;;5.00;3.00;;;;;;;47.17;16.86;100384.98;108051;1254;60280;-70
2023/08/20 08:28:09;;;;;;;7.60;3.20;;;;;;;46.73;17.33;100382.36;108115;1254;60367;-69
2023/08/20 08:30:37;;;;;;;7.30;3.20;;;;;;;46.19;18.14;100381.67;108090;1253;63610;-70
2023/08/20 08:33:04;;;;;;;8.80;3.20;;;;;;;45.59;18.14;100376.14;108036;1254;61341;-69
2023/08/20 08:35:32;;;;;;;6.80;3.30;;;;;;;44.58;19.12;100374.47;108082;1254;63729;-69
2023/08/20 08:38:01;;;;;;;9.50;3.90;;;;;;;43.97;19.76;100374.35;108090;1257;60337;-70
2023/08/20 08:40:29;;;;;;;7.80;3.60;;;;;;;43.71;19.88;100373.69;108082;1253;58997;-69
2023/08/20 08:42:57;;;;;;;8.60;3.40;;;;;;;43.69;19.66;100372.90;108075;1254;65017;-70
2023/08/20 08:45:24;;;;;;;7.80;3.80;;;;;;;43.53;19.91;100376.43;108054;1254;61304;-71
2023/08/20 08:47:51;;;;;;;6.50;3.90;;;;;;;43.43;20.13;100377.20;108003;1254;64303;-69
2023/08/20 08:50:19;;;;;;;5.80;3.80;;;;;;;43.24;20.16;100377.30;107894;1254;60319;-69
2023/08/20 08:52:47;;;;;;;12.20;4.30;;;;;;;42.70;20.91;100375.82;108013;1254;59112;-69
2023/08/20 08:55:14;;;;;;;8.50;4.20;;;;;;;41.75;22.55;100381.11;107960;1254;63704;-68
2023/08/20 08:57:42;;;;;;;8.70;4.50;;;;;;;41.48;22.85;100384.02;108014;1254;60191;-69
2023/08/20 09:00:09;;;;;;;11.40;4.80;;;;;;;41.33;23.11;100388.94;107985;1254;62431;-69
2023/08/20 09:02:37;;;;;;;9.80;4.70;;;;;;;41.11;23.22;100388.33;108001;1254;59062;-70
2023/08/20 09:05:05;;;;;;;17.30;5.10;;;;;;;40.60;24.48;100392.75;108019;1254;60349;-69
2023/08/20 09:07:33;;;;;;;16.70;5.50;;;;;;;40.30;25.67;100395.23;108111;1254;63618;-69
2023/08/20 09:10:00;;;;;;;11.40;5.10;;;;;;;39.28;26.90;100399.24;107941;1254;61374;-70
2023/08/20 09:12:28;;;;;;;14.80;5.90;;;;;;;38.78;27.34;100405.33;107951;1254;62545;-70
2023/08/20 09:14:57;;;;;;;8.90;5.60;;;;;;;38.44;27.83;100403.41;108087;1253;60332;-69
2023/08/20 09:17:25;;;;;;;9.40;5.00;;;;;;;38.30;28.01;100402.34;108064;1254;60491;-69
2023/08/20 09:19:54;;;;;;;11.90;5.10;;;;;;;38.44;27.70;100402.02;107977;1257;64897;-70
2023/08/20 09:22:22;;;;;;;10.60;5.60;;;;;;;38.61;27.51;100402.86;108031;1254;60440;-69
2023/08/20 09:24:56;;;;;;;13.30;5.30;;;;;;;38.65;27.69;100399.94;108031;1253;73704;-70
2023/08/20 09:27:24;;;;;;;9.90;5.40;;;;;;;38.65;27.84;100393.59;108060;1254;60384;-69
2023/08/20 09:29:57;;;;;;;12.20;5.80;;;;;;;39.09;27.28;100383.73;108054;1254;61112;-69
2023/08/20 09:32:27;;;;;;;9.80;5.10;;;;;;;39.54;26.70;100375.95;108161;1253;63671;-70
2023/08/20 09:34:56;;;;;;;11.70;5.30;;;;;;;39.85;26.36;100376.73;108610;1253;60768;-69
2023/08/20 09:37:24;;;;;;;9.90;5.50;;;;;;;40.36;25.50;100375.57;108490;1254;63776;-69
2023/08/20 09:39:51;;;;;;;13.20;4.90;;;;;;;41.04;24.99;100372.56;108287;1253;59844;-70
2023/08/20 09:42:19;;;;;;;12.30;5.50;;;;;;;41.36;24.25;100371.80;108148;1253;60482;-71
2023/08/20 09:44:46;;;;;;;11.00;5.30;;;;;;;41.67;23.57;100369.81;108175;1253;64948;-70
2023/08/20 09:47:18;;;;;;;12.30;5.40;;;;;;;41.93;23.37;100371.02;108199;1253;61341;-71
2023/08/20 09:49:47;;;;;;;10.60;5.50;;;;;;;42.23;23.11;100370.65;108039;1253;63767;-69
2023/08/20 09:52:39;;;;;;;12.20;5.60;;;;;;;42.66;22.81;100370.06;108071;1253;60416;-71
2023/08/20 09:55:13;;;;;;;11.90;5.50;;;;;;;43.28;22.04;100363.64;108131;1254;60312;-69
2023/08/20 09:57:41;;;;;;;10.00;5.30;;;;;;;43.65;21.53;100358.80;108070;1253;63816;-69
2023/08/20 10:00:12;;;;;;;10.70;5.20;;;;;;;43.91;21.12;100354.47;108122;1253;61348;-70
2023/08/20 10:02:41;;;;;;;9.50;5.70;;;;;;;44.32;20.64;100357.46;108074;1254;62491;-69
2023/08/20 10:05:10;;;;;;;11.40;5.50;;;;;;;44.65;20.20;100360.29;108173;1253;60454;-70
2023/08/20 10:07:37;;;;;;;9.80;5.00;;;;;;;44.63;19.95;100357.62;108106;1254;60454;-69
2023/08/20 10:10:06;;;;;;;11.20;5.00;;;;;;;44.73;20.11;100352.85;108136;1253;63703;-69
2023/08/20 10:12:34;;;;;;;7.30;4.80;;;;;;;45.09;19.33;100346.59;108089;1253;61368;-69
2023/08/20 10:15:02;;;;;;;7.80;4.70;;;;;;;45.23;19.06;100343.34;107988;1254;64124;-70
2023/08/20 10:17:29;;;;;;;8.40;4.60;;;;;;;45.63;18.85;100340.49;108043;1257;62175;-72
2023/08/20 10:19:58;;;;;;;8.80;4.60;;;;;;;45.88;18.75;100337.60;108022;1253;60460;-68
2023/08/20 10:22:33;;;;;;;10.40;4.90;;;;;;;46.28;18.89;100338.09;108042;1256;63648;-70
2023/08/20 10:25:02;;;;;;;12.20;4.90;;;;;;;46.41;18.75;100341.27;107977;1258;61847;-69
2023/08/20 10:27:34;;;;;;;9.30;4.80;;;;;;;46.41;18.65;100337.55;108008;1254;63735;-68
2023/08/20 10:30:11;;;;;;;8.30;4.90;;;;;;;46.12;18.60;100338.73;107966;1254;60309;-68
2023/08/20 10:32:56;;;;;;;8.30;5.20;;;;;;;46.08;18.89;100337.94;107903;1254;60343;-69
2023/08/20 10:35:47;;;;;;;12.30;4.90;;;;;;;46.40;18.56;100335.82;107874;1254;65430;-68
2023/08/20 10:38:16;;;;;;;9.50;5.20;;;;;;;46.20;18.51;100335.85;107816;1254;61580;-70
2023/08/20 10:40:58;;;;;;;8.90;5.20;;;;;;;45.96;18.54;100328.47;107952;1254;63797;-70
2023/08/20 10:43:25;;;;;;;11.20;5.20;;;;;;;45.76;18.85;100328.20;107936;1254;60537;-71
2023/08/20 10:46:06;;;;;;;9.50;5.20;;;;;;;45.43;18.90;100326.11;107925;1254;59686;-69
2023/08/20 10:48:38;;;;;;;13.10;5.40;;;;;;;45.00;19.52;100326.08;107933;1256;64937;-70
2023/08/20 10:51:17;;;;;;;10.90;5.20;;;;;;;44.80;19.61;100324.23;107997;1254;60562;-70
2023/08/20 10:54:05;;;;;;;10.30;5.60;;;;;;;44.84;19.63;100320.12;108036;1254;71419;-69
2023/08/20 10:56:45;;;;;;;9.50;5.60;;;;;;;44.68;19.58;100318.67;107953;1255;60408;-69
2023/08/20 10:59:34;;;;;;;13.50;5.60;;;;;;;44.33;19.93;100313.34;107988;1254;60312;-69
2023/08/20 11:02:03;;;;;;;11.80;5.20;;;;;;;43.99;19.83;100307.77;108013;1254;64914;-70
2023/08/20 11:04:34;;;;;;;10.10;5.00;;;;;;;43.72;20.39;100306.63;107714;1254;70617;-70
2023/08/20 11:07:01;;;;;;;9.70;5.20;;;;;;;43.95;20.14;100304.09;107825;1257;63750;-69
2023/08/20 11:09:30;;;;;;;9.60;4.90;;;;;;;44.32;20.14;100301.83;107890;1254;61674;-69
2023/08/20 11:11:57;;;;;;;11.40;5.60;;;;;;;44.23;20.21;100296.05;107966;1254;61469;-69
2023/08/20 11:14:25;;;;;;;13.80;5.50;;;;;;;44.24;20.61;100285.90;108003;1254;74224;-70
2023/08/20 11:16:52;;;;;;;7.50;5.40;;;;;;;44.26;20.52;100285.17;108035;1254;60869;-69
2023/08/20 11:19:21;;;;;;;8.50;5.10;;;;;;;44.34;20.64;100287.06;107963;1254;63746;-69
2023/08/20 11:21:49;;;;;;;7.90;5.50;;;;;;;43.88;20.50;100286.95;108019;1257;60399;-70